sensor_id;sensor_type;location;lat;lon;timestamp;P1;durP1;ratioP1;P2;durP2;ratioP2
75218;SDS011;63801;49.414;19.474;2023-06-22T00:00:53;18.33;;;11.80;;
75218;SDS011;63801;49.414;19.474;2023-06-22T00:02:53;18.90;;;11.35;;
75218;SDS011;63801;49.414;19.474;2023-06-22T00:04:54;21.15;;;11.57;;
75218;SDS011;63801;49.414;19.474;2023-06-22T00:06:54;18.10;;;12.00;;
75218;SDS011;63801;49.414;19.474;2023-06-22T00:08:54;20.75;;;12.43;;
75218;SDS011;63801;49.414;19.474;2023-06-22T00:10:55;21.10;;;11.85;;
75218;SDS011;63801;49.414;19.474;2023-06-22T00:12:55;19.80;;;10.15;;
75218;SDS011;63801;49.414;19.474;2023-06-22T00:14:55;15.02;;;9.05;;
75218;SDS011;63801;49.414;19.474;2023-06-22T00:16:55;17.05;;;9.75;;
75218;SDS011;63801;49.414;19.474;2023-06-22T00:18:57;13.60;;;8.43;;
75218;SDS011;63801;49.414;19.474;2023-06-22T00:21:00;14.85;;;8.43;;
75218;SDS011;63801;49.414;19.474;2023-06-22T00:23:00;13.80;;;8.32;;
75218;SDS011;63801;49.414;19.474;2023-06-22T00:25:01;13.65;;;8.02;;
75218;SDS011;63801;49.414;19.474;2023-06-22T00:27:01;14.70;;;8.18;;
75218;SDS011;63801;49.414;19.474;2023-06-22T00:29:02;16.20;;;8.20;;
75218;SDS011;63801;49.414;19.474;2023-06-22T00:31:02;13.52;;;7.68;;
75218;SDS011;63801;49.414;19.474;2023-06-22T00:33:02;14.88;;;8.52;;
75218;SDS011;63801;49.414;19.474;2023-06-22T00:35:03;15.98;;;7.70;;
75218;SDS011;63801;49.414;19.474;2023-06-22T00:37:03;15.55;;;8.52;;
75218;SDS011;63801;49.414;19.474;2023-06-22T00:39:04;16.05;;;8.38;;
75218;SDS011;63801;49.414;19.474;2023-06-22T00:41:05;17.23;;;8.25;;
75218;SDS011;63801;49.414;19.474;2023-06-22T00:43:06;18.15;;;8.30;;
75218;SDS011;63801;49.414;19.474;2023-06-22T00:45:06;16.15;;;8.95;;
75218;SDS011;63801;49.414;19.474;2023-06-22T00:47:07;14.07;;;8.15;;
75218;SDS011;63801;49.414;19.474;2023-06-22T00:49:07;19.30;;;8.02;;
75218;SDS011;63801;49.414;19.474;2023-06-22T00:51:08;14.23;;;8.18;;
75218;SDS011;63801;49.414;19.474;2023-06-22T00:53:08;12.52;;;7.90;;
75218;SDS011;63801;49.414;19.474;2023-06-22T00:55:09;15.90;;;7.93;;
75218;SDS011;63801;49.414;19.474;2023-06-22T00:57:10;14.90;;;7.18;;
75218;SDS011;63801;49.414;19.474;2023-06-22T00:59:12;14.70;;;7.78;;
75218;SDS011;63801;49.414;19.474;2023-06-22T01:01:13;13.25;;;7.22;;
75218;SDS011;63801;49.414;19.474;2023-06-22T01:03:14;11.85;;;7.05;;
75218;SDS011;63801;49.414;19.474;2023-06-22T01:05:20;14.73;;;7.30;;
75218;SDS011;63801;49.414;19.474;2023-06-22T01:07:35;11.98;;;7.10;;
75218;SDS011;63801;49.414;19.474;2023-06-22T01:09:42;10.07;;;6.47;;
75218;SDS011;63801;49.414;19.474;2023-06-22T01:12:03;13.25;;;6.38;;
75218;SDS011;63801;49.414;19.474;2023-06-22T01:14:12;10.68;;;6.43;;
75218;SDS011;63801;49.414;19.474;2023-06-22T01:18:31;11.75;;;6.03;;
75218;SDS011;63801;49.414;19.474;2023-06-22T01:20:36;12.98;;;6.25;;
75218;SDS011;63801;49.414;19.474;2023-06-22T01:29:57;15.07;;;5.93;;
75218;SDS011;63801;49.414;19.474;2023-06-22T01:32:01;11.27;;;5.90;;
75218;SDS011;63801;49.414;19.474;2023-06-22T01:36:06;11.23;;;5.72;;
75218;SDS011;63801;49.414;19.474;2023-06-22T01:38:06;10.32;;;6.15;;
75218;SDS011;63801;49.414;19.474;2023-06-22T01:40:08;12.00;;;6.63;;
75218;SDS011;63801;49.414;19.474;2023-06-22T01:42:09;11.93;;;6.47;;
75218;SDS011;63801;49.414;19.474;2023-06-22T01:44:10;11.48;;;6.32;;
75218;SDS011;63801;49.414;19.474;2023-06-22T01:46:12;15.45;;;6.80;;
75218;SDS011;63801;49.414;19.474;2023-06-22T01:48:12;12.45;;;6.65;;
75218;SDS011;63801;49.414;19.474;2023-06-22T01:50:13;13.45;;;7.20;;
75218;SDS011;63801;49.414;19.474;2023-06-22T01:52:13;16.08;;;6.82;;
75218;SDS011;63801;49.414;19.474;2023-06-22T01:54:14;12.18;;;6.60;;
75218;SDS011;63801;49.414;19.474;2023-06-22T01:56:16;12.02;;;6.47;;
75218;SDS011;63801;49.414;19.474;2023-06-22T01:58:17;10.40;;;6.20;;
75218;SDS011;63801;49.414;19.474;2023-06-22T02:00:21;11.02;;;5.88;;
75218;SDS011;63801;49.414;19.474;2023-06-22T02:02:24;11.38;;;5.97;;
75218;SDS011;63801;49.414;19.474;2023-06-22T02:04:33;10.77;;;5.47;;
75218;SDS011;63801;49.414;19.474;2023-06-22T02:06:37;11.63;;;5.55;;
75218;SDS011;63801;49.414;19.474;2023-06-22T02:08:43;13.32;;;5.78;;
75218;SDS011;63801;49.414;19.474;2023-06-22T02:10:48;12.65;;;5.45;;
75218;SDS011;63801;49.414;19.474;2023-06-22T02:12:50;11.05;;;6.15;;
75218;SDS011;63801;49.414;19.474;2023-06-22T02:14:54;11.05;;;6.20;;
75218;SDS011;63801;49.414;19.474;2023-06-22T02:16:55;14.27;;;6.28;;
75218;SDS011;63801;49.414;19.474;2023-06-22T02:19:00;10.30;;;6.72;;
75218;SDS011;63801;49.414;19.474;2023-06-22T02:21:03;10.73;;;6.22;;
75218;SDS011;63801;49.414;19.474;2023-06-22T02:23:03;13.52;;;6.18;;
75218;SDS011;63801;49.414;19.474;2023-06-22T02:25:04;10.85;;;6.10;;
75218;SDS011;63801;49.414;19.474;2023-06-22T02:27:05;13.35;;;5.85;;
75218;SDS011;63801;49.414;19.474;2023-06-22T02:29:07;13.27;;;6.20;;
75218;SDS011;63801;49.414;19.474;2023-06-22T02:31:07;14.55;;;6.93;;
75218;SDS011;63801;49.414;19.474;2023-06-22T02:33:07;14.50;;;6.88;;
75218;SDS011;63801;49.414;19.474;2023-06-22T02:35:08;13.82;;;7.13;;
75218;SDS011;63801;49.414;19.474;2023-06-22T02:37:11;13.48;;;6.50;;
75218;SDS011;63801;49.414;19.474;2023-06-22T02:39:12;10.77;;;6.18;;
75218;SDS011;63801;49.414;19.474;2023-06-22T02:41:12;13.25;;;6.13;;
75218;SDS011;63801;49.414;19.474;2023-06-22T02:43:14;12.68;;;6.63;;
75218;SDS011;63801;49.414;19.474;2023-06-22T02:45:14;11.95;;;6.15;;
75218;SDS011;63801;49.414;19.474;2023-06-22T02:47:15;12.93;;;5.95;;
75218;SDS011;63801;49.414;19.474;2023-06-22T02:49:15;16.80;;;6.45;;
75218;SDS011;63801;49.414;19.474;2023-06-22T02:51:16;11.68;;;5.95;;
75218;SDS011;63801;49.414;19.474;2023-06-22T02:53:16;13.98;;;6.30;;
75218;SDS011;63801;49.414;19.474;2023-06-22T02:55:16;14.23;;;5.65;;
75218;SDS011;63801;49.414;19.474;2023-06-22T02:57:17;13.85;;;6.20;;
75218;SDS011;63801;49.414;19.474;2023-06-22T02:59:17;11.75;;;5.85;;
75218;SDS011;63801;49.414;19.474;2023-06-22T03:01:17;10.65;;;5.88;;
75218;SDS011;63801;49.414;19.474;2023-06-22T03:03:23;14.27;;;5.65;;
75218;SDS011;63801;49.414;19.474;2023-06-22T03:05:26;11.23;;;5.50;;
75218;SDS011;63801;49.414;19.474;2023-06-22T03:07:26;10.27;;;6.03;;
75218;SDS011;63801;49.414;19.474;2023-06-22T03:09:28;13.60;;;6.10;;
75218;SDS011;63801;49.414;19.474;2023-06-22T03:11:28;10.23;;;5.75;;
75218;SDS011;63801;49.414;19.474;2023-06-22T03:13:29;12.48;;;6.20;;
75218;SDS011;63801;49.414;19.474;2023-06-22T03:15:29;11.18;;;5.80;;
75218;SDS011;63801;49.414;19.474;2023-06-22T03:17:31;9.52;;;5.70;;
75218;SDS011;63801;49.414;19.474;2023-06-22T03:19:31;12.85;;;5.50;;
75218;SDS011;63801;49.414;19.474;2023-06-22T03:21:32;8.90;;;5.40;;
75218;SDS011;63801;49.414;19.474;2023-06-22T03:23:32;11.68;;;5.75;;
75218;SDS011;63801;49.414;19.474;2023-06-22T03:25:32;10.10;;;5.13;;
75218;SDS011;63801;49.414;19.474;2023-06-22T03:27:33;12.15;;;5.75;;
75218;SDS011;63801;49.414;19.474;2023-06-22T03:29:34;12.13;;;5.50;;
75218;SDS011;63801;49.414;19.474;2023-06-22T03:31:34;12.88;;;5.28;;
75218;SDS011;63801;49.414;19.474;2023-06-22T03:33:34;10.98;;;5.72;;
75218;SDS011;63801;49.414;19.474;2023-06-22T03:35:35;9.38;;;5.20;;
75218;SDS011;63801;49.414;19.474;2023-06-22T03:37:35;9.82;;;5.63;;
75218;SDS011;63801;49.414;19.474;2023-06-22T03:39:36;9.95;;;5.43;;
75218;SDS011;63801;49.414;19.474;2023-06-22T03:41:36;12.80;;;5.45;;
75218;SDS011;63801;49.414;19.474;2023-06-22T03:43:36;11.02;;;5.28;;
75218;SDS011;63801;49.414;19.474;2023-06-22T03:45:37;10.95;;;5.05;;
75218;SDS011;63801;49.414;19.474;2023-06-22T03:47:37;11.75;;;5.07;;
75218;SDS011;63801;49.414;19.474;2023-06-22T03:49:38;8.95;;;5.00;;
75218;SDS011;63801;49.414;19.474;2023-06-22T03:51:38;8.68;;;4.40;;
75218;SDS011;63801;49.414;19.474;2023-06-22T03:53:39;10.98;;;4.40;;
75218;SDS011;63801;49.414;19.474;2023-06-22T03:55:47;13.48;;;5.40;;
75218;SDS011;63801;49.414;19.474;2023-06-22T03:57:53;9.27;;;4.53;;
75218;SDS011;63801;49.414;19.474;2023-06-22T03:59:57;10.73;;;4.40;;
75218;SDS011;63801;49.414;19.474;2023-06-22T04:01:58;14.25;;;4.70;;
75218;SDS011;63801;49.414;19.474;2023-06-22T04:03:58;9.07;;;4.70;;
75218;SDS011;63801;49.414;19.474;2023-06-22T04:05:58;13.05;;;5.55;;
75218;SDS011;63801;49.414;19.474;2023-06-22T04:07:59;11.60;;;5.57;;
75218;SDS011;63801;49.414;19.474;2023-06-22T04:09:59;11.98;;;6.60;;
75218;SDS011;63801;49.414;19.474;2023-06-22T04:11:59;13.60;;;6.40;;
75218;SDS011;63801;49.414;19.474;2023-06-22T04:14:00;12.93;;;6.93;;
75218;SDS011;63801;49.414;19.474;2023-06-22T04:16:01;12.95;;;6.00;;
75218;SDS011;63801;49.414;19.474;2023-06-22T04:18:01;9.90;;;4.80;;
75218;SDS011;63801;49.414;19.474;2023-06-22T04:20:01;14.98;;;5.60;;
75218;SDS011;63801;49.414;19.474;2023-06-22T04:22:03;11.30;;;5.93;;
75218;SDS011;63801;49.414;19.474;2023-06-22T04:24:03;10.90;;;5.47;;
75218;SDS011;63801;49.414;19.474;2023-06-22T04:26:04;11.48;;;5.40;;
75218;SDS011;63801;49.414;19.474;2023-06-22T04:28:05;12.20;;;5.68;;
75218;SDS011;63801;49.414;19.474;2023-06-22T04:30:08;9.95;;;5.95;;
75218;SDS011;63801;49.414;19.474;2023-06-22T04:32:09;9.32;;;5.47;;
75218;SDS011;63801;49.414;19.474;2023-06-22T04:34:09;10.15;;;5.28;;
75218;SDS011;63801;49.414;19.474;2023-06-22T04:36:09;11.30;;;5.28;;
75218;SDS011;63801;49.414;19.474;2023-06-22T04:38:13;10.60;;;5.25;;
75218;SDS011;63801;49.414;19.474;2023-06-22T04:40:13;8.00;;;4.72;;
75218;SDS011;63801;49.414;19.474;2023-06-22T04:42:14;11.07;;;4.63;;
75218;SDS011;63801;49.414;19.474;2023-06-22T04:44:15;12.57;;;4.72;;
75218;SDS011;63801;49.414;19.474;2023-06-22T04:46:25;10.15;;;4.70;;
75218;SDS011;63801;49.414;19.474;2023-06-22T04:48:25;14.82;;;5.93;;
75218;SDS011;63801;49.414;19.474;2023-06-22T04:50:32;9.57;;;5.50;;
75218;SDS011;63801;49.414;19.474;2023-06-22T04:52:33;14.13;;;6.03;;
75218;SDS011;63801;49.414;19.474;2023-06-22T04:54:33;12.88;;;6.40;;
75218;SDS011;63801;49.414;19.474;2023-06-22T04:56:36;10.98;;;6.68;;
75218;SDS011;63801;49.414;19.474;2023-06-22T04:58:36;11.18;;;6.45;;
75218;SDS011;63801;49.414;19.474;2023-06-22T05:00:37;15.27;;;6.43;;
75218;SDS011;63801;49.414;19.474;2023-06-22T05:02:40;9.38;;;4.38;;
75218;SDS011;63801;49.414;19.474;2023-06-22T05:04:41;9.73;;;4.70;;
75218;SDS011;63801;49.414;19.474;2023-06-22T05:06:41;13.98;;;6.90;;
75218;SDS011;63801;49.414;19.474;2023-06-22T05:08:41;12.32;;;6.65;;
75218;SDS011;63801;49.414;19.474;2023-06-22T05:10:42;9.82;;;6.25;;
75218;SDS011;63801;49.414;19.474;2023-06-22T05:12:42;9.65;;;5.88;;
75218;SDS011;63801;49.414;19.474;2023-06-22T05:14:42;10.93;;;6.03;;
75218;SDS011;63801;49.414;19.474;2023-06-22T05:16:43;9.20;;;5.60;;
75218;SDS011;63801;49.414;19.474;2023-06-22T05:18:44;11.93;;;6.13;;
75218;SDS011;63801;49.414;19.474;2023-06-22T05:20:45;11.60;;;5.55;;
75218;SDS011;63801;49.414;19.474;2023-06-22T05:22:45;14.77;;;5.70;;
75218;SDS011;63801;49.414;19.474;2023-06-22T05:24:45;10.27;;;5.60;;
75218;SDS011;63801;49.414;19.474;2023-06-22T05:26:46;12.07;;;5.88;;
75218;SDS011;63801;49.414;19.474;2023-06-22T05:28:47;14.88;;;5.80;;
75218;SDS011;63801;49.414;19.474;2023-06-22T05:30:47;10.20;;;4.43;;
75218;SDS011;63801;49.414;19.474;2023-06-22T05:32:48;9.88;;;4.10;;
75218;SDS011;63801;49.414;19.474;2023-06-22T05:34:48;12.32;;;4.10;;
75218;SDS011;63801;49.414;19.474;2023-06-22T05:36:48;12.52;;;4.45;;
75218;SDS011;63801;49.414;19.474;2023-06-22T05:38:49;6.88;;;3.80;;
75218;SDS011;63801;49.414;19.474;2023-06-22T05:40:49;11.50;;;4.20;;
75218;SDS011;63801;49.414;19.474;2023-06-22T05:42:49;9.35;;;3.83;;
75218;SDS011;63801;49.414;19.474;2023-06-22T05:44:50;9.82;;;3.70;;
75218;SDS011;63801;49.414;19.474;2023-06-22T05:46:50;9.25;;;3.83;;
75218;SDS011;63801;49.414;19.474;2023-06-22T05:48:50;11.93;;;3.97;;
75218;SDS011;63801;49.414;19.474;2023-06-22T05:50:51;8.60;;;4.20;;
75218;SDS011;63801;49.414;19.474;2023-06-22T05:52:51;9.23;;;4.35;;
75218;SDS011;63801;49.414;19.474;2023-06-22T05:54:51;16.65;;;4.25;;
75218;SDS011;63801;49.414;19.474;2023-06-22T05:56:51;7.32;;;3.20;;
75218;SDS011;63801;49.414;19.474;2023-06-22T05:58:52;8.40;;;3.58;;
75218;SDS011;63801;49.414;19.474;2023-06-22T06:00:52;14.00;;;4.20;;
75218;SDS011;63801;49.414;19.474;2023-06-22T06:02:52;9.32;;;3.80;;
75218;SDS011;63801;49.414;19.474;2023-06-22T06:04:53;9.68;;;3.85;;
75218;SDS011;63801;49.414;19.474;2023-06-22T06:06:54;9.68;;;4.82;;
75218;SDS011;63801;49.414;19.474;2023-06-22T06:08:54;10.20;;;4.90;;
75218;SDS011;63801;49.414;19.474;2023-06-22T06:10:55;12.75;;;5.10;;
75218;SDS011;63801;49.414;19.474;2023-06-22T06:12:56;9.38;;;4.97;;
75218;SDS011;63801;49.414;19.474;2023-06-22T06:14:57;10.98;;;4.85;;
75218;SDS011;63801;49.414;19.474;2023-06-22T06:16:57;9.13;;;5.15;;
75218;SDS011;63801;49.414;19.474;2023-06-22T06:18:58;9.50;;;5.20;;
75218;SDS011;63801;49.414;19.474;2023-06-22T06:20:58;8.95;;;5.25;;
75218;SDS011;63801;49.414;19.474;2023-06-22T06:22:58;7.97;;;4.63;;
75218;SDS011;63801;49.414;19.474;2023-06-22T06:24:59;11.05;;;4.40;;
75218;SDS011;63801;49.414;19.474;2023-06-22T06:26:59;10.07;;;4.68;;
75218;SDS011;63801;49.414;19.474;2023-06-22T06:29:00;9.50;;;4.90;;
75218;SDS011;63801;49.414;19.474;2023-06-22T06:31:00;11.15;;;5.03;;
75218;SDS011;63801;49.414;19.474;2023-06-22T06:33:01;9.95;;;4.75;;
75218;SDS011;63801;49.414;19.474;2023-06-22T06:35:01;9.05;;;4.63;;
75218;SDS011;63801;49.414;19.474;2023-06-22T06:37:02;12.52;;;4.97;;
75218;SDS011;63801;49.414;19.474;2023-06-22T06:39:03;11.13;;;4.80;;
75218;SDS011;63801;49.414;19.474;2023-06-22T06:41:03;12.00;;;4.70;;
75218;SDS011;63801;49.414;19.474;2023-06-22T06:43:04;11.40;;;5.25;;
75218;SDS011;63801;49.414;19.474;2023-06-22T06:45:04;10.93;;;5.03;;
75218;SDS011;63801;49.414;19.474;2023-06-22T06:47:05;10.90;;;4.93;;
75218;SDS011;63801;49.414;19.474;2023-06-22T06:49:06;10.70;;;4.75;;
75218;SDS011;63801;49.414;19.474;2023-06-22T06:51:06;12.80;;;5.45;;
75218;SDS011;63801;49.414;19.474;2023-06-22T06:53:09;9.50;;;5.20;;
75218;SDS011;63801;49.414;19.474;2023-06-22T06:55:10;12.57;;;5.28;;
75218;SDS011;63801;49.414;19.474;2023-06-22T06:57:11;9.80;;;5.07;;
75218;SDS011;63801;49.414;19.474;2023-06-22T06:59:16;12.43;;;5.38;;
75218;SDS011;63801;49.414;19.474;2023-06-22T07:01:17;9.75;;;5.30;;
75218;SDS011;63801;49.414;19.474;2023-06-22T07:03:19;12.18;;;5.38;;
75218;SDS011;63801;49.414;19.474;2023-06-22T07:05:20;7.43;;;4.82;;
75218;SDS011;63801;49.414;19.474;2023-06-22T07:07:20;13.38;;;5.00;;
75218;SDS011;63801;49.414;19.474;2023-06-22T07:09:20;8.93;;;4.65;;
75218;SDS011;63801;49.414;19.474;2023-06-22T07:11:21;10.52;;;5.45;;
75218;SDS011;63801;49.414;19.474;2023-06-22T07:13:21;10.30;;;5.32;;
75218;SDS011;63801;49.414;19.474;2023-06-22T07:15:21;8.35;;;5.70;;
75218;SDS011;63801;49.414;19.474;2023-06-22T07:17:22;9.85;;;4.90;;
75218;SDS011;63801;49.414;19.474;2023-06-22T07:19:25;10.15;;;5.35;;
75218;SDS011;63801;49.414;19.474;2023-06-22T07:21:26;11.30;;;5.35;;
75218;SDS011;63801;49.414;19.474;2023-06-22T07:23:27;8.77;;;5.10;;
75218;SDS011;63801;49.414;19.474;2023-06-22T07:25:27;15.45;;;5.25;;
75218;SDS011;63801;49.414;19.474;2023-06-22T07:27:28;9.32;;;4.90;;
75218;SDS011;63801;49.414;19.474;2023-06-22T07:29:28;12.05;;;5.10;;
75218;SDS011;63801;49.414;19.474;2023-06-22T07:31:28;12.38;;;5.85;;
75218;SDS011;63801;49.414;19.474;2023-06-22T07:33:29;7.60;;;4.85;;
75218;SDS011;63801;49.414;19.474;2023-06-22T07:35:30;8.05;;;4.82;;
75218;SDS011;63801;49.414;19.474;2023-06-22T07:37:30;10.27;;;5.72;;
75218;SDS011;63801;49.414;19.474;2023-06-22T07:39:33;11.73;;;6.22;;
75218;SDS011;63801;49.414;19.474;2023-06-22T07:41:33;10.18;;;5.65;;
75218;SDS011;63801;49.414;19.474;2023-06-22T07:43:33;16.63;;;6.00;;
75218;SDS011;63801;49.414;19.474;2023-06-22T07:45:37;9.02;;;6.13;;
75218;SDS011;63801;49.414;19.474;2023-06-22T07:47:40;14.00;;;5.90;;
75218;SDS011;63801;49.414;19.474;2023-06-22T07:49:40;9.95;;;6.20;;
75218;SDS011;63801;49.414;19.474;2023-06-22T07:51:40;9.90;;;6.90;;
75218;SDS011;63801;49.414;19.474;2023-06-22T07:53:41;10.00;;;5.70;;
75218;SDS011;63801;49.414;19.474;2023-06-22T07:55:42;9.05;;;6.18;;
75218;SDS011;63801;49.414;19.474;2023-06-22T07:57:42;7.80;;;5.47;;
75218;SDS011;63801;49.414;19.474;2023-06-22T07:59:43;10.60;;;6.57;;
75218;SDS011;63801;49.414;19.474;2023-06-22T08:01:43;12.20;;;6.30;;
75218;SDS011;63801;49.414;19.474;2023-06-22T08:03:43;11.23;;;6.27;;
75218;SDS011;63801;49.414;19.474;2023-06-22T08:05:44;13.10;;;6.05;;
75218;SDS011;63801;49.414;19.474;2023-06-22T08:07:44;12.77;;;6.38;;
75218;SDS011;63801;49.414;19.474;2023-06-22T08:09:46;11.40;;;6.57;;
75218;SDS011;63801;49.414;19.474;2023-06-22T08:11:48;10.48;;;7.07;;
75218;SDS011;63801;49.414;19.474;2023-06-22T08:13:49;11.65;;;7.45;;
75218;SDS011;63801;49.414;19.474;2023-06-22T08:15:49;9.25;;;6.78;;
75218;SDS011;63801;49.414;19.474;2023-06-22T08:17:50;15.98;;;7.13;;
75218;SDS011;63801;49.414;19.474;2023-06-22T08:21:52;12.73;;;7.03;;
75218;SDS011;63801;49.414;19.474;2023-06-22T08:23:52;9.35;;;7.13;;
75218;SDS011;63801;49.414;19.474;2023-06-22T08:25:53;16.13;;;7.55;;
75218;SDS011;63801;49.414;19.474;2023-06-22T08:27:53;11.73;;;7.85;;
75218;SDS011;63801;49.414;19.474;2023-06-22T08:29:53;14.48;;;8.02;;
75218;SDS011;63801;49.414;19.474;2023-06-22T08:31:58;10.30;;;7.72;;
75218;SDS011;63801;49.414;19.474;2023-06-22T08:33:58;11.38;;;7.53;;
75218;SDS011;63801;49.414;19.474;2023-06-22T08:35:58;11.75;;;7.90;;
75218;SDS011;63801;49.414;19.474;2023-06-22T08:38:00;17.73;;;8.77;;
75218;SDS011;63801;49.414;19.474;2023-06-22T08:40:03;17.65;;;7.72;;
75218;SDS011;63801;49.414;19.474;2023-06-22T08:42:08;12.48;;;8.10;;
75218;SDS011;63801;49.414;19.474;2023-06-22T08:44:08;13.35;;;7.88;;
75218;SDS011;63801;49.414;19.474;2023-06-22T08:46:09;11.43;;;7.40;;
75218;SDS011;63801;49.414;19.474;2023-06-22T08:48:09;13.98;;;9.02;;
75218;SDS011;63801;49.414;19.474;2023-06-22T08:50:09;13.25;;;8.38;;
75218;SDS011;63801;49.414;19.474;2023-06-22T08:54:11;12.23;;;8.37;;
75218;SDS011;63801;49.414;19.474;2023-06-22T08:56:12;14.05;;;9.80;;
75218;SDS011;63801;49.414;19.474;2023-06-22T08:58:12;12.82;;;8.77;;
75218;SDS011;63801;49.414;19.474;2023-06-22T09:00:13;16.35;;;9.45;;
75218;SDS011;63801;49.414;19.474;2023-06-22T09:02:16;15.73;;;9.15;;
75218;SDS011;63801;49.414;19.474;2023-06-22T09:04:17;11.20;;;8.13;;
75218;SDS011;63801;49.414;19.474;2023-06-22T09:06:17;14.85;;;9.20;;
75218;SDS011;63801;49.414;19.474;2023-06-22T09:08:17;17.00;;;8.23;;
75218;SDS011;63801;49.414;19.474;2023-06-22T09:10:17;17.00;;;8.75;;
75218;SDS011;63801;49.414;19.474;2023-06-22T09:12:19;11.93;;;8.25;;
75218;SDS011;63801;49.414;19.474;2023-06-22T09:14:22;11.50;;;8.65;;
75218;SDS011;63801;49.414;19.474;2023-06-22T09:16:22;14.32;;;9.00;;
75218;SDS011;63801;49.414;19.474;2023-06-22T09:18:23;14.18;;;8.60;;
75218;SDS011;63801;49.414;19.474;2023-06-22T09:20:23;17.05;;;9.05;;
75218;SDS011;63801;49.414;19.474;2023-06-22T09:22:24;12.32;;;8.30;;
75218;SDS011;63801;49.414;19.474;2023-06-22T09:24:28;13.63;;;8.85;;
75218;SDS011;63801;49.414;19.474;2023-06-22T09:26:29;15.38;;;8.32;;
75218;SDS011;63801;49.414;19.474;2023-06-22T09:28:29;13.25;;;8.73;;
75218;SDS011;63801;49.414;19.474;2023-06-22T09:30:30;11.55;;;8.07;;
75218;SDS011;63801;49.414;19.474;2023-06-22T09:32:30;14.68;;;9.20;;
75218;SDS011;63801;49.414;19.474;2023-06-22T09:34:30;12.85;;;8.90;;
75218;SDS011;63801;49.414;19.474;2023-06-22T09:36:31;15.07;;;8.90;;
75218;SDS011;63801;49.414;19.474;2023-06-22T09:38:31;13.93;;;9.15;;
75218;SDS011;63801;49.414;19.474;2023-06-22T09:40:32;12.23;;;8.77;;
75218;SDS011;63801;49.414;19.474;2023-06-22T09:42:35;13.95;;;9.10;;
75218;SDS011;63801;49.414;19.474;2023-06-22T09:44:35;16.35;;;9.65;;
75218;SDS011;63801;49.414;19.474;2023-06-22T09:46:36;13.00;;;9.13;;
75218;SDS011;63801;49.414;19.474;2023-06-22T09:48:36;13.75;;;8.60;;
75218;SDS011;63801;49.414;19.474;2023-06-22T09:50:36;15.57;;;9.10;;
75218;SDS011;63801;49.414;19.474;2023-06-22T09:52:37;11.88;;;8.88;;
75218;SDS011;63801;49.414;19.474;2023-06-22T09:54:37;12.88;;;8.38;;
75218;SDS011;63801;49.414;19.474;2023-06-22T09:56:38;13.82;;;9.18;;
75218;SDS011;63801;49.414;19.474;2023-06-22T09:58:38;11.05;;;8.40;;
75218;SDS011;63801;49.414;19.474;2023-06-22T10:00:38;12.18;;;8.70;;
75218;SDS011;63801;49.414;19.474;2023-06-22T10:02:39;11.05;;;8.27;;
75218;SDS011;63801;49.414;19.474;2023-06-22T10:06:41;11.23;;;8.33;;
75218;SDS011;63801;49.414;19.474;2023-06-22T10:08:41;12.07;;;8.18;;
75218;SDS011;63801;49.414;19.474;2023-06-22T10:10:42;16.02;;;9.48;;
75218;SDS011;63801;49.414;19.474;2023-06-22T10:12:46;13.15;;;8.82;;
75218;SDS011;63801;49.414;19.474;2023-06-22T10:14:47;12.80;;;9.30;;
75218;SDS011;63801;49.414;19.474;2023-06-22T10:16:48;10.52;;;8.57;;
75218;SDS011;63801;49.414;19.474;2023-06-22T10:18:48;13.85;;;8.80;;
75218;SDS011;63801;49.414;19.474;2023-06-22T10:20:49;12.52;;;9.15;;
75218;SDS011;63801;49.414;19.474;2023-06-22T10:22:53;12.45;;;8.63;;
75218;SDS011;63801;49.414;19.474;2023-06-22T10:24:53;14.82;;;9.27;;
75218;SDS011;63801;49.414;19.474;2023-06-22T10:26:54;12.70;;;8.40;;
75218;SDS011;63801;49.414;19.474;2023-06-22T10:28:54;12.10;;;8.73;;
75218;SDS011;63801;49.414;19.474;2023-06-22T10:30:54;12.52;;;9.30;;
75218;SDS011;63801;49.414;19.474;2023-06-22T10:32:55;12.35;;;9.18;;
75218;SDS011;63801;49.414;19.474;2023-06-22T10:34:55;15.48;;;8.88;;
75218;SDS011;63801;49.414;19.474;2023-06-22T10:36:56;11.93;;;8.68;;
75218;SDS011;63801;49.414;19.474;2023-06-22T10:38:56;13.20;;;9.00;;
75218;SDS011;63801;49.414;19.474;2023-06-22T10:40:59;13.32;;;8.85;;
75218;SDS011;63801;49.414;19.474;2023-06-22T10:42:59;12.60;;;9.15;;
75218;SDS011;63801;49.414;19.474;2023-06-22T10:44:59;23.67;;;8.77;;
75218;SDS011;63801;49.414;19.474;2023-06-22T10:47:00;12.23;;;8.52;;
75218;SDS011;63801;49.414;19.474;2023-06-22T10:49:00;13.48;;;8.30;;
75218;SDS011;63801;49.414;19.474;2023-06-22T10:51:00;13.27;;;8.80;;
75218;SDS011;63801;49.414;19.474;2023-06-22T10:53:01;11.02;;;8.60;;
75218;SDS011;63801;49.414;19.474;2023-06-22T10:55:01;15.00;;;9.18;;
75218;SDS011;63801;49.414;19.474;2023-06-22T10:57:02;13.40;;;8.63;;
75218;SDS011;63801;49.414;19.474;2023-06-22T10:59:02;12.68;;;9.30;;
75218;SDS011;63801;49.414;19.474;2023-06-22T11:01:03;15.50;;;10.05;;
75218;SDS011;63801;49.414;19.474;2023-06-22T11:03:03;16.40;;;9.20;;
75218;SDS011;63801;49.414;19.474;2023-06-22T11:05:04;14.88;;;9.60;;
75218;SDS011;63801;49.414;19.474;2023-06-22T11:07:04;11.50;;;9.02;;
75218;SDS011;63801;49.414;19.474;2023-06-22T11:09:05;16.17;;;9.02;;
75218;SDS011;63801;49.414;19.474;2023-06-22T11:11:05;12.05;;;9.10;;
75218;SDS011;63801;49.414;19.474;2023-06-22T11:13:06;15.02;;;9.20;;
75218;SDS011;63801;49.414;19.474;2023-06-22T11:15:09;12.07;;;8.65;;
75218;SDS011;63801;49.414;19.474;2023-06-22T11:17:10;14.23;;;9.98;;
75218;SDS011;63801;49.414;19.474;2023-06-22T11:19:10;13.90;;;10.45;;
75218;SDS011;63801;49.414;19.474;2023-06-22T11:21:10;15.27;;;11.07;;
75218;SDS011;63801;49.414;19.474;2023-06-22T11:23:11;20.45;;;12.13;;
75218;SDS011;63801;49.414;19.474;2023-06-22T11:25:12;15.10;;;11.57;;
75218;SDS011;63801;49.414;19.474;2023-06-22T11:27:13;16.35;;;10.95;;
75218;SDS011;63801;49.414;19.474;2023-06-22T11:29:13;14.85;;;11.80;;
75218;SDS011;63801;49.414;19.474;2023-06-22T11:31:13;14.45;;;11.43;;
75218;SDS011;63801;49.414;19.474;2023-06-22T11:33:14;17.17;;;11.95;;
75218;SDS011;63801;49.414;19.474;2023-06-22T11:35:14;16.55;;;12.35;;
75218;SDS011;63801;49.414;19.474;2023-06-22T11:37:15;17.98;;;12.32;;
75218;SDS011;63801;49.414;19.474;2023-06-22T11:39:16;17.98;;;12.13;;
75218;SDS011;63801;49.414;19.474;2023-06-22T11:41:16;16.20;;;12.20;;
75218;SDS011;63801;49.414;19.474;2023-06-22T11:43:16;17.33;;;12.20;;
75218;SDS011;63801;49.414;19.474;2023-06-22T11:45:17;15.40;;;11.43;;
75218;SDS011;63801;49.414;19.474;2023-06-22T11:47:18;17.17;;;11.10;;
75218;SDS011;63801;49.414;19.474;2023-06-22T11:49:19;14.70;;;10.57;;
75218;SDS011;63801;49.414;19.474;2023-06-22T11:51:19;16.23;;;10.95;;
75218;SDS011;63801;49.414;19.474;2023-06-22T11:53:20;16.40;;;10.43;;
75218;SDS011;63801;49.414;19.474;2023-06-22T11:55:21;14.70;;;10.32;;
75218;SDS011;63801;49.414;19.474;2023-06-22T11:57:21;13.77;;;10.23;;
75218;SDS011;63801;49.414;19.474;2023-06-22T11:59:22;12.52;;;9.82;;
75218;SDS011;63801;49.414;19.474;2023-06-22T12:01:22;13.98;;;8.93;;
75218;SDS011;63801;49.414;19.474;2023-06-22T12:03:22;13.50;;;9.32;;
75218;SDS011;63801;49.414;19.474;2023-06-22T12:05:23;12.63;;;9.32;;
75218;SDS011;63801;49.414;19.474;2023-06-22T12:07:24;13.23;;;10.10;;